sensor_id;sensor_type;location;lat;lon;timestamp;P1;durP1;ratioP1;P2;durP2;ratioP2
3309;SDS011;1667;53.238;10.394;2023-10-13T00:03:05;3.90;;;2.37;;
3309;SDS011;1667;53.238;10.394;2023-10-13T00:08:14;7.63;;;4.00;;
3309;SDS011;1667;53.238;10.394;2023-10-13T00:13:13;2.73;;;2.03;;
3309;SDS011;1667;53.238;10.394;2023-10-13T00:18:12;3.60;;;2.00;;
3309;SDS011;1667;53.238;10.394;2023-10-13T00:23:11;8.80;;;2.80;;
3309;SDS011;1667;53.238;10.394;2023-10-13T00:28:12;1.77;;;1.67;;
3309;SDS011;1667;53.238;10.394;2023-10-13T00:33:20;8.63;;;4.23;;
3309;SDS011;1667;53.238;10.394;2023-10-13T00:38:21;3.90;;;2.30;;
3309;SDS011;1667;53.238;10.394;2023-10-13T00:43:21;3.53;;;2.40;;
3309;SDS011;1667;53.238;10.394;2023-10-13T00:48:30;5.33;;;3.00;;
3309;SDS011;1667;53.238;10.394;2023-10-13T00:53:33;7.27;;;2.10;;
3309;SDS011;1667;53.238;10.394;2023-10-13T00:58:36;8.70;;;4.50;;
3309;SDS011;1667;53.238;10.394;2023-10-13T01:03:36;4.23;;;3.30;;
3309;SDS011;1667;53.238;10.394;2023-10-13T01:08:38;8.13;;;3.87;;
3309;SDS011;1667;53.238;10.394;2023-10-13T01:13:40;8.37;;;4.57;;
3309;SDS011;1667;53.238;10.394;2023-10-13T01:18:38;13.90;;;5.30;;
3309;SDS011;1667;53.238;10.394;2023-10-13T01:23:47;2.53;;;2.33;;
3309;SDS011;1667;53.238;10.394;2023-10-13T01:28:48;9.87;;;5.10;;
3309;SDS011;1667;53.238;10.394;2023-10-13T01:33:47;7.07;;;3.63;;
3309;SDS011;1667;53.238;10.394;2023-10-13T01:38:52;2.43;;;2.23;;
3309;SDS011;1667;53.238;10.394;2023-10-13T01:43:51;13.63;;;5.40;;
3309;SDS011;1667;53.238;10.394;2023-10-13T01:48:53;5.40;;;3.50;;
3309;SDS011;1667;53.238;10.394;2023-10-13T01:53:55;3.93;;;2.70;;
3309;SDS011;1667;53.238;10.394;2023-10-13T01:58:54;9.07;;;5.77;;
3309;SDS011;1667;53.238;10.394;2023-10-13T02:03:54;6.00;;;4.07;;
3309;SDS011;1667;53.238;10.394;2023-10-13T02:14:26;12.00;;;5.73;;
3309;SDS011;1667;53.238;10.394;2023-10-13T02:19:25;13.70;;;5.63;;
3309;SDS011;1667;53.238;10.394;2023-10-13T02:24:27;12.67;;;5.53;;
3309;SDS011;1667;53.238;10.394;2023-10-13T02:29:27;3.63;;;3.30;;
3309;SDS011;1667;53.238;10.394;2023-10-13T02:41:14;6.40;;;3.73;;
3309;SDS011;1667;53.238;10.394;2023-10-13T02:46:18;8.83;;;5.23;;
3309;SDS011;1667;53.238;10.394;2023-10-13T02:51:19;4.07;;;3.10;;
3309;SDS011;1667;53.238;10.394;2023-10-13T02:56:24;5.93;;;4.17;;
3309;SDS011;1667;53.238;10.394;2023-10-13T03:01:24;12.50;;;6.50;;
3309;SDS011;1667;53.238;10.394;2023-10-13T03:06:26;4.13;;;3.60;;
3309;SDS011;1667;53.238;10.394;2023-10-13T03:11:31;4.07;;;3.60;;
3309;SDS011;1667;53.238;10.394;2023-10-13T03:16:30;4.90;;;3.30;;
3309;SDS011;1667;53.238;10.394;2023-10-13T03:21:29;5.77;;;4.10;;
3309;SDS011;1667;53.238;10.394;2023-10-13T03:26:28;4.07;;;2.73;;
3309;SDS011;1667;53.238;10.394;2023-10-13T03:31:32;8.10;;;5.90;;
3309;SDS011;1667;53.238;10.394;2023-10-13T03:36:34;8.43;;;5.00;;
3309;SDS011;1667;53.238;10.394;2023-10-13T03:41:50;7.07;;;5.43;;
3309;SDS011;1667;53.238;10.394;2023-10-13T03:46:54;7.27;;;4.87;;
3309;SDS011;1667;53.238;10.394;2023-10-13T03:51:53;18.03;;;7.07;;
3309;SDS011;1667;53.238;10.394;2023-10-13T03:56:54;8.33;;;5.37;;
3309;SDS011;1667;53.238;10.394;2023-10-13T04:01:55;8.20;;;4.43;;
3309;SDS011;1667;53.238;10.394;2023-10-13T04:06:58;12.63;;;6.17;;
3309;SDS011;1667;53.238;10.394;2023-10-13T04:12:09;8.03;;;5.00;;
3309;SDS011;1667;53.238;10.394;2023-10-13T04:17:50;10.10;;;7.37;;
3309;SDS011;1667;53.238;10.394;2023-10-13T04:22:49;17.20;;;9.57;;
3309;SDS011;1667;53.238;10.394;2023-10-13T04:28:06;16.63;;;9.37;;
3309;SDS011;1667;53.238;10.394;2023-10-13T04:33:33;17.67;;;10.37;;
3309;SDS011;1667;53.238;10.394;2023-10-13T04:38:41;14.07;;;7.77;;
3309;SDS011;1667;53.238;10.394;2023-10-13T04:43:54;22.00;;;11.77;;
3309;SDS011;1667;53.238;10.394;2023-10-13T04:49:03;20.47;;;9.27;;
3309;SDS011;1667;53.238;10.394;2023-10-13T04:54:24;19.77;;;12.23;;
3309;SDS011;1667;53.238;10.394;2023-10-13T04:59:31;23.33;;;12.07;;
3309;SDS011;1667;53.238;10.394;2023-10-13T05:04:57;24.27;;;13.60;;
3309;SDS011;1667;53.238;10.394;2023-10-13T05:10:29;19.10;;;9.47;;
3309;SDS011;1667;53.238;10.394;2023-10-13T05:15:57;15.20;;;9.30;;
3309;SDS011;1667;53.238;10.394;2023-10-13T05:21:16;14.30;;;10.10;;
3309;SDS011;1667;53.238;10.394;2023-10-13T05:26:31;18.30;;;10.43;;
3309;SDS011;1667;53.238;10.394;2023-10-13T05:31:48;24.03;;;14.37;;
3309;SDS011;1667;53.238;10.394;2023-10-13T05:37:06;17.33;;;11.30;;
3309;SDS011;1667;53.238;10.394;2023-10-13T05:42:23;17.83;;;11.67;;
3309;SDS011;1667;53.238;10.394;2023-10-13T05:47:40;22.00;;;12.20;;
3309;SDS011;1667;53.238;10.394;2023-10-13T05:52:52;21.87;;;14.07;;
3309;SDS011;1667;53.238;10.394;2023-10-13T05:58:08;21.27;;;12.13;;
3309;SDS011;1667;53.238;10.394;2023-10-13T06:03:25;27.23;;;15.17;;
3309;SDS011;1667;53.238;10.394;2023-10-13T06:08:42;20.67;;;12.87;;
3309;SDS011;1667;53.238;10.394;2023-10-13T06:13:59;16.67;;;10.30;;
3309;SDS011;1667;53.238;10.394;2023-10-13T06:19:15;17.67;;;12.70;;
3309;SDS011;1667;53.238;10.394;2023-10-13T06:24:33;16.73;;;11.10;;
3309;SDS011;1667;53.238;10.394;2023-10-13T06:29:49;14.30;;;9.07;;
3309;SDS011;1667;53.238;10.394;2023-10-13T06:34:50;19.13;;;10.90;;
3309;SDS011;1667;53.238;10.394;2023-10-13T06:45:30;13.03;;;9.90;;
3309;SDS011;1667;53.238;10.394;2023-10-13T06:50:33;15.70;;;10.40;;
3309;SDS011;1667;53.238;10.394;2023-10-13T06:55:38;21.80;;;12.53;;
3309;SDS011;1667;53.238;10.394;2023-10-13T07:00:37;14.77;;;9.10;;
3309;SDS011;1667;53.238;10.394;2023-10-13T07:05:49;17.83;;;11.80;;
3309;SDS011;1667;53.238;10.394;2023-10-13T07:10:51;15.50;;;9.70;;
3309;SDS011;1667;53.238;10.394;2023-10-13T07:16:00;12.50;;;7.90;;
3309;SDS011;1667;53.238;10.394;2023-10-13T07:21:08;14.47;;;8.40;;
3309;SDS011;1667;53.238;10.394;2023-10-13T07:26:09;11.20;;;8.37;;
3309;SDS011;1667;53.238;10.394;2023-10-13T07:31:12;8.93;;;7.30;;
3309;SDS011;1667;53.238;10.394;2023-10-13T07:36:12;15.67;;;9.20;;
3309;SDS011;1667;53.238;10.394;2023-10-13T07:41:17;11.30;;;8.63;;
3309;SDS011;1667;53.238;10.394;2023-10-13T07:46:19;11.37;;;7.50;;
3309;SDS011;1667;53.238;10.394;2023-10-13T07:51:27;8.00;;;6.90;;
3309;SDS011;1667;53.238;10.394;2023-10-13T07:56:31;10.47;;;8.30;;
3309;SDS011;1667;53.238;10.394;2023-10-13T08:01:36;9.20;;;7.47;;
3309;SDS011;1667;53.238;10.394;2023-10-13T08:06:40;9.30;;;6.90;;
3309;SDS011;1667;53.238;10.394;2023-10-13T08:11:42;12.77;;;7.00;;
3309;SDS011;1667;53.238;10.394;2023-10-13T08:16:42;9.83;;;6.40;;
3309;SDS011;1667;53.238;10.394;2023-10-13T08:21:49;10.40;;;6.50;;
3309;SDS011;1667;53.238;10.394;2023-10-13T08:26:50;8.00;;;6.17;;
3309;SDS011;1667;53.238;10.394;2023-10-13T08:32:12;5.77;;;5.20;;
3309;SDS011;1667;53.238;10.394;2023-10-13T08:37:33;6.43;;;4.40;;
3309;SDS011;1667;53.238;10.394;2023-10-13T08:42:45;5.53;;;4.60;;
3309;SDS011;1667;53.238;10.394;2023-10-13T08:48:05;5.00;;;4.10;;
3309;SDS011;1667;53.238;10.394;2023-10-13T08:53:05;4.27;;;3.83;;
3309;SDS011;1667;53.238;10.394;2023-10-13T08:58:24;4.73;;;3.70;;
3309;SDS011;1667;53.238;10.394;2023-10-13T09:03:54;4.33;;;3.90;;
3309;SDS011;1667;53.238;10.394;2023-10-13T09:09:06;4.50;;;3.17;;
3309;SDS011;1667;53.238;10.394;2023-10-13T09:14:13;3.53;;;3.23;;
3309;SDS011;1667;53.238;10.394;2023-10-13T09:19:31;3.53;;;3.23;;
3309;SDS011;1667;53.238;10.394;2023-10-13T09:24:35;3.50;;;3.10;;
3309;SDS011;1667;53.238;10.394;2023-10-13T09:29:36;3.13;;;2.83;;
3309;SDS011;1667;53.238;10.394;2023-10-13T09:34:36;4.53;;;2.77;;
3309;SDS011;1667;53.238;10.394;2023-10-13T09:39:41;3.70;;;3.20;;
3309;SDS011;1667;53.238;10.394;2023-10-13T09:44:47;3.90;;;3.60;;
3309;SDS011;1667;53.238;10.394;2023-10-13T09:49:49;4.23;;;3.10;;
3309;SDS011;1667;53.238;10.394;2023-10-13T09:55:04;7.00;;;3.07;;
3309;SDS011;1667;53.238;10.394;2023-10-13T10:00:13;5.67;;;3.80;;
3309;SDS011;1667;53.238;10.394;2023-10-13T10:05:42;4.87;;;3.60;;
3309;SDS011;1667;53.238;10.394;2023-10-13T10:10:47;5.10;;;4.00;;
3309;SDS011;1667;53.238;10.394;2023-10-13T10:15:56;4.63;;;4.00;;
3309;SDS011;1667;53.238;10.394;2023-10-13T10:21:04;5.37;;;4.10;;
3309;SDS011;1667;53.238;10.394;2023-10-13T10:26:10;4.20;;;3.80;;
3309;SDS011;1667;53.238;10.394;2023-10-13T10:31:13;4.70;;;4.10;;
3309;SDS011;1667;53.238;10.394;2023-10-13T10:36:14;5.20;;;4.27;;
3309;SDS011;1667;53.238;10.394;2023-10-13T10:41:15;6.03;;;4.60;;
3309;SDS011;1667;53.238;10.394;2023-10-13T10:46:26;6.50;;;4.40;;
3309;SDS011;1667;53.238;10.394;2023-10-13T10:51:36;8.97;;;4.00;;
3309;SDS011;1667;53.238;10.394;2023-10-13T10:56:42;5.47;;;4.70;;
3309;SDS011;1667;53.238;10.394;2023-10-13T11:01:45;7.23;;;4.67;;
3309;SDS011;1667;53.238;10.394;2023-10-13T11:06:49;8.10;;;4.10;;
3309;SDS011;1667;53.238;10.394;2023-10-13T11:11:52;7.10;;;4.60;;
3309;SDS011;1667;53.238;10.394;2023-10-13T11:16:53;5.57;;;3.83;;
3309;SDS011;1667;53.238;10.394;2023-10-13T11:21:57;5.23;;;3.57;;
3309;SDS011;1667;53.238;10.394;2023-10-13T11:26:59;4.90;;;4.50;;
3309;SDS011;1667;53.238;10.394;2023-10-13T11:32:05;5.23;;;3.83;;
3309;SDS011;1667;53.238;10.394;2023-10-13T11:37:05;4.73;;;4.00;;
3309;SDS011;1667;53.238;10.394;2023-10-13T11:42:17;4.60;;;3.63;;
3309;SDS011;1667;53.238;10.394;2023-10-13T11:47:18;5.33;;;3.63;;
3309;SDS011;1667;53.238;10.394;2023-10-13T11:52:37;9.63;;;4.30;;
3309;SDS011;1667;53.238;10.394;2023-10-13T11:57:37;8.73;;;4.43;;
3309;SDS011;1667;53.238;10.394;2023-10-13T12:02:49;5.50;;;4.13;;
3309;SDS011;1667;53.238;10.394;2023-10-13T12:08:05;8.13;;;4.87;;
3309;SDS011;1667;53.238;10.394;2023-10-13T12:13:16;7.57;;;4.17;;
3309;SDS011;1667;53.238;10.394;2023-10-13T12:18:18;10.50;;;3.63;;
3309;SDS011;1667;53.238;10.394;2023-10-13T12:23:20;7.80;;;4.53;;
3309;SDS011;1667;53.238;10.394;2023-10-13T12:28:28;6.07;;;3.13;;
3309;SDS011;1667;53.238;10.394;2023-10-13T12:33:29;7.33;;;3.60;;
3309;SDS011;1667;53.238;10.394;2023-10-13T12:38:34;6.90;;;3.90;;
3309;SDS011;1667;53.238;10.394;2023-10-13T12:44:09;3.77;;;3.20;;
3309;SDS011;1667;53.238;10.394;2023-10-13T12:49:27;8.77;;;4.30;;
3309;SDS011;1667;53.238;10.394;2023-10-13T12:54:46;3.07;;;2.77;;
3309;SDS011;1667;53.238;10.394;2023-10-13T12:59:55;7.53;;;3.83;;
3309;SDS011;1667;53.238;10.394;2023-10-13T13:04:56;4.07;;;3.33;;
3309;SDS011;1667;53.238;10.394;2023-10-13T13:10:03;9.33;;;4.03;;
3309;SDS011;1667;53.238;10.394;2023-10-13T13:15:02;6.17;;;3.87;;
3309;SDS011;1667;53.238;10.394;2023-10-13T13:20:08;11.60;;;3.97;;
3309;SDS011;1667;53.238;10.394;2023-10-13T13:25:23;6.07;;;3.67;;
3309;SDS011;1667;53.238;10.394;2023-10-13T13:30:27;8.40;;;4.77;;
3309;SDS011;1667;53.238;10.394;2023-10-13T13:35:32;8.70;;;3.80;;
3309;SDS011;1667;53.238;10.394;2023-10-13T13:40:32;6.57;;;4.40;;
3309;SDS011;1667;53.238;10.394;2023-10-13T13:45:32;8.70;;;3.57;;
3309;SDS011;1667;53.238;10.394;2023-10-13T13:50:35;12.80;;;4.53;;
3309;SDS011;1667;53.238;10.394;2023-10-13T13:55:38;12.20;;;5.50;;
3309;SDS011;1667;53.238;10.394;2023-10-13T14:00:37;12.20;;;5.60;;
3309;SDS011;1667;53.238;10.394;2023-10-13T14:05:45;7.07;;;4.00;;
3309;SDS011;1667;53.238;10.394;2023-10-13T14:10:46;10.07;;;5.33;;
3309;SDS011;1667;53.238;10.394;2023-10-13T14:16:03;10.23;;;4.73;;
3309;SDS011;1667;53.238;10.394;2023-10-13T14:21:03;10.27;;;4.80;;
3309;SDS011;1667;53.238;10.394;2023-10-13T14:26:02;8.93;;;4.00;;
3309;SDS011;1667;53.238;10.394;2023-10-13T14:31:06;7.07;;;4.30;;
3309;SDS011;1667;53.238;10.394;2023-10-13T14:36:11;11.73;;;4.60;;
3309;SDS011;1667;53.238;10.394;2023-10-13T14:41:13;7.20;;;5.43;;
3309;SDS011;1667;53.238;10.394;2023-10-13T14:46:13;8.50;;;4.43;;
3309;SDS011;1667;53.238;10.394;2023-10-13T14:51:14;5.40;;;4.03;;
3309;SDS011;1667;53.238;10.394;2023-10-13T14:56:14;10.03;;;4.40;;
3309;SDS011;1667;53.238;10.394;2023-10-13T15:01:15;5.77;;;5.10;;
3309;SDS011;1667;53.238;10.394;2023-10-13T15:06:16;10.50;;;4.50;;
3309;SDS011;1667;53.238;10.394;2023-10-13T15:11:16;6.20;;;4.60;;
3309;SDS011;1667;53.238;10.394;2023-10-13T15:16:16;10.07;;;5.70;;
3309;SDS011;1667;53.238;10.394;2023-10-13T15:21:22;7.00;;;4.27;;
3309;SDS011;1667;53.238;10.394;2023-10-13T15:26:27;16.53;;;5.43;;
3309;SDS011;1667;53.238;10.394;2023-10-13T15:31:26;6.93;;;4.50;;
3309;SDS011;1667;53.238;10.394;2023-10-13T15:36:35;12.87;;;5.43;;
3309;SDS011;1667;53.238;10.394;2023-10-13T15:41:36;11.67;;;4.50;;
3309;SDS011;1667;53.238;10.394;2023-10-13T15:46:36;9.10;;;4.80;;
3309;SDS011;1667;53.238;10.394;2023-10-13T15:51:39;12.03;;;4.87;;
3309;SDS011;1667;53.238;10.394;2023-10-13T15:56:38;8.70;;;4.83;;
3309;SDS011;1667;53.238;10.394;2023-10-13T16:01:36;8.73;;;4.20;;
3309;SDS011;1667;53.238;10.394;2023-10-13T16:12:32;14.27;;;4.90;;
3309;SDS011;1667;53.238;10.394;2023-10-13T16:17:31;11.67;;;4.77;;
3309;SDS011;1667;53.238;10.394;2023-10-13T16:28:04;9.63;;;5.00;;
3309;SDS011;1667;53.238;10.394;2023-10-13T16:33:05;4.37;;;3.17;;
3309;SDS011;1667;53.238;10.394;2023-10-13T16:38:19;11.70;;;6.13;;
3309;SDS011;1667;53.238;10.394;2023-10-13T16:43:23;10.70;;;4.80;;
3309;SDS011;1667;53.238;10.394;2023-10-13T16:48:22;11.83;;;5.57;;
3309;SDS011;1667;53.238;10.394;2023-10-13T16:53:23;8.57;;;4.60;;
3309;SDS011;1667;53.238;10.394;2023-10-13T16:58:24;7.30;;;4.40;;
3309;SDS011;1667;53.238;10.394;2023-10-13T17:03:24;7.43;;;4.37;;
3309;SDS011;1667;53.238;10.394;2023-10-13T17:08:26;9.77;;;3.83;;
3309;SDS011;1667;53.238;10.394;2023-10-13T17:13:27;8.83;;;3.37;;
3309;SDS011;1667;53.238;10.394;2023-10-13T17:18:26;20.97;;;4.23;;
3309;SDS011;1667;53.238;10.394;2023-10-13T17:23:25;12.30;;;4.30;;
3309;SDS011;1667;53.238;10.394;2023-10-13T17:28:33;7.67;;;3.87;;
3309;SDS011;1667;53.238;10.394;2023-10-13T17:33:32;10.90;;;4.90;;
3309;SDS011;1667;53.238;10.394;2023-10-13T17:38:36;5.57;;;3.67;;
3309;SDS011;1667;53.238;10.394;2023-10-13T17:43:37;12.70;;;3.60;;
3309;SDS011;1667;53.238;10.394;2023-10-13T17:48:36;6.03;;;3.33;;
3309;SDS011;1667;53.238;10.394;2023-10-13T17:53:36;15.70;;;4.00;;
3309;SDS011;1667;53.238;10.394;2023-10-13T17:58:37;10.67;;;4.13;;
3309;SDS011;1667;53.238;10.394;2023-10-13T18:03:38;6.80;;;3.80;;
3309;SDS011;1667;53.238;10.394;2023-10-13T18:08:37;11.33;;;3.87;;
3309;SDS011;1667;53.238;10.394;2023-10-13T18:13:38;9.03;;;4.40;;
3309;SDS011;1667;53.238;10.394;2023-10-13T18:18:39;11.70;;;3.87;;
3309;SDS011;1667;53.238;10.394;2023-10-13T18:23:38;12.93;;;5.30;;
3309;SDS011;1667;53.238;10.394;2023-10-13T18:28:41;10.30;;;4.43;;
3309;SDS011;1667;53.238;10.394;2023-10-13T18:33:41;13.27;;;6.13;;
3309;SDS011;1667;53.238;10.394;2023-10-13T18:38:40;18.70;;;5.53;;
3309;SDS011;1667;53.238;10.394;2023-10-13T18:43:41;10.97;;;5.10;;
3309;SDS011;1667;53.238;10.394;2023-10-13T18:48:41;10.43;;;5.20;;
3309;SDS011;1667;53.238;10.394;2023-10-13T18:53:42;10.50;;;5.30;;
3309;SDS011;1667;53.238;10.394;2023-10-13T18:58:45;11.03;;;4.60;;
3309;SDS011;1667;53.238;10.394;2023-10-13T19:03:50;9.67;;;5.00;;
3309;SDS011;1667;53.238;10.394;2023-10-13T19:08:50;6.00;;;4.17;;
3309;SDS011;1667;53.238;10.394;2023-10-13T19:13:50;14.77;;;4.90;;
3309;SDS011;1667;53.238;10.394;2023-10-13T19:18:49;13.87;;;5.27;;
3309;SDS011;1667;53.238;10.394;2023-10-13T19:23:49;12.27;;;5.13;;
3309;SDS011;1667;53.238;10.394;2023-10-13T19:28:51;9.33;;;5.50;;
3309;SDS011;1667;53.238;10.394;2023-10-13T19:33:51;18.90;;;5.20;;
3309;SDS011;1667;53.238;10.394;2023-10-13T19:38:51;12.17;;;4.77;;
3309;SDS011;1667;53.238;10.394;2023-10-13T19:43:53;13.03;;;5.07;;
3309;SDS011;1667;53.238;10.394;2023-10-13T19:48:53;9.30;;;5.20;;
3309;SDS011;1667;53.238;10.394;2023-10-13T19:53:55;7.43;;;5.20;;
3309;SDS011;1667;53.238;10.394;2023-10-13T19:58:56;9.40;;;5.27;;
3309;SDS011;1667;53.238;10.394;2023-10-13T20:03:58;11.83;;;4.27;;
3309;SDS011;1667;53.238;10.394;2023-10-13T20:08:58;12.03;;;4.13;;
3309;SDS011;1667;53.238;10.394;2023-10-13T20:14:07;10.60;;;4.43;;
3309;SDS011;1667;53.238;10.394;2023-10-13T20:19:07;12.47;;;4.50;;
3309;SDS011;1667;53.238;10.394;2023-10-13T20:24:06;15.73;;;6.47;;
3309;SDS011;1667;53.238;10.394;2023-10-13T20:29:05;13.87;;;5.33;;
3309;SDS011;1667;53.238;10.394;2023-10-13T20:34:05;9.83;;;3.70;;
3309;SDS011;1667;53.238;10.394;2023-10-13T20:39:09;9.83;;;4.37;;
3309;SDS011;1667;53.238;10.394;2023-10-13T20:44:23;4.80;;;2.60;;
3309;SDS011;1667;53.238;10.394;2023-10-13T20:49:25;8.07;;;3.60;;
3309;SDS011;1667;53.238;10.394;2023-10-13T20:54:24;4.20;;;3.10;;
3309;SDS011;1667;53.238;10.394;2023-10-13T20:59:25;4.73;;;2.50;;
3309;SDS011;1667;53.238;10.394;2023-10-13T21:04:24;4.67;;;2.80;;
3309;SDS011;1667;53.238;10.394;2023-10-13T21:09:23;4.60;;;2.43;;
3309;SDS011;1667;53.238;10.394;2023-10-13T21:14:22;11.27;;;3.23;;
3309;SDS011;1667;53.238;10.394;2023-10-13T21:19:23;6.50;;;2.43;;
3309;SDS011;1667;53.238;10.394;2023-10-13T21:24:22;4.53;;;3.03;;
3309;SDS011;1667;53.238;10.394;2023-10-13T21:29:21;5.50;;;3.10;;
3309;SDS011;1667;53.238;10.394;2023-10-13T21:34:23;3.40;;;2.00;;
3309;SDS011;1667;53.238;10.394;2023-10-13T21:39:22;6.33;;;2.90;;
3309;SDS011;1667;53.238;10.394;2023-10-13T21:44:41;7.17;;;2.90;;
3309;SDS011;1667;53.238;10.394;2023-10-13T21:49:43;3.33;;;2.13;;
3309;SDS011;1667;53.238;10.394;2023-10-13T21:54:43;5.33;;;2.07;;
3309;SDS011;1667;53.238;10.394;2023-10-13T21:59:42;4.90;;;3.43;;
3309;SDS011;1667;53.238;10.394;2023-10-13T22:04:42;3.20;;;2.40;;
3309;SDS011;1667;53.238;10.394;2023-10-13T22:09:41;5.13;;;3.30;;
3309;SDS011;1667;53.238;10.394;2023-10-13T22:14:43;5.83;;;3.57;;
3309;SDS011;1667;53.238;10.394;2023-10-13T22:19:44;6.73;;;4.00;;
3309;SDS011;1667;53.238;10.394;2023-10-13T22:24:46;8.20;;;4.70;;
3309;SDS011;1667;53.238;10.394;2023-10-13T22:29:45;8.07;;;4.80;;
3309;SDS011;1667;53.238;10.394;2023-10-13T22:40:39;11.30;;;6.17;;
3309;SDS011;1667;53.238;10.394;2023-10-13T22:45:38;9.30;;;4.67;;
3309;SDS011;1667;53.238;10.394;2023-10-13T22:50:38;9.00;;;5.10;;
3309;SDS011;1667;53.238;10.394;2023-10-13T22:55:39;11.73;;;6.20;;
3309;SDS011;1667;53.238;10.394;2023-10-13T23:00:41;8.20;;;4.53;;
3309;SDS011;1667;53.238;10.394;2023-10-13T23:05:46;8.53;;;5.30;;
3309;SDS011;1667;53.238;10.394;2023-10-13T23:10:51;6.50;;;4.93;;
3309;SDS011;1667;53.238;10.394;2023-10-13T23:15:51;8.47;;;5.90;;
3309;SDS011;1667;53.238;10.394;2023-10-13T23:20:51;10.37;;;5.17;;
3309;SDS011;1667;53.238;10.394;2023-10-13T23:25:52;10.53;;;5.93;;
3309;SDS011;1667;53.238;10.394;2023-10-13T23:30:52;14.67;;;5.83;;
3309;SDS011;1667;53.238;10.394;2023-10-13T23:35:51;10.33;;;6.63;;
3309;SDS011;1667;53.238;10.394;2023-10-13T23:40:52;8.40;;;6.00;;
3309;SDS011;1667;53.238;10.394;2023-10-13T23:45:54;10.13;;;6.43;;
3309;SDS011;1667;53.238;10.394;2023-10-13T23:50:56;11.13;;;6.27;;
3309;SDS011;1667;53.238;10.394;2023-10-13T23:55:59;13.20;;;6.40;;
